Time;durP1;ratioP1;P1;durP2;ratioP2;P2;SDS_P1;SDS_P2;PMS_P1;PMS_P2;Temp;Humidity;BMP_temperature;BMP_pressure;BME280_temperature;BME280_humidity;BME280_pressure;Samples;Min_cycle;Max_cycle;Signal;HPM_P1;HPM_P2
2022/11/06 00:01:28;;;;;;;22.80;14.83;;;3.60;99.90;;;;;;8398934;28;20184;-71
2022/11/06 00:09:48;;;;;;;17.80;12.07;;;3.60;99.90;;;;;;8419585;28;20201;-70
2022/11/06 00:13:51;;;;;;;15.87;11.73;;;3.50;99.90;;;;;;8398713;28;20186;-71
2022/11/06 00:17:51;;;;;;;15.20;11.30;;;3.50;99.90;;;;;;8400090;28;20204;-71
2022/11/06 00:21:52;;;;;;;18.90;12.17;;;3.50;99.90;;;;;;8400654;28;20263;-70
2022/11/06 00:25:55;;;;;;;20.07;11.73;;;3.40;99.90;;;;;;8416352;28;20188;-70
2022/11/06 00:29:56;;;;;;;16.20;10.50;;;3.40;99.90;;;;;;8415477;28;20185;-70
2022/11/06 00:33:59;;;;;;;13.87;9.37;;;3.40;99.90;;;;;;8398904;28;20188;-71
2022/11/06 00:38:00;;;;;;;12.40;8.47;;;3.40;99.90;;;;;;8416883;28;20236;-71
2022/11/06 00:42:00;;;;;;;13.50;8.03;;;3.40;99.90;;;;;;8399450;28;20180;-71
2022/11/06 00:46:07;;;;;;;15.80;9.13;;;3.30;99.90;;;;;;8417930;28;20284;-70
2022/11/06 00:50:08;;;;;;;15.67;9.13;;;3.20;99.90;;;;;;8414742;28;20192;-70
2022/11/06 00:54:11;;;;;;;12.73;8.07;;;3.20;99.90;;;;;;8398196;28;20206;-70
2022/11/06 00:58:11;;;;;;;10.93;7.67;;;3.10;99.90;;;;;;8404369;28;20219;-70
2022/11/06 01:02:13;;;;;;;10.33;7.87;;;3.10;99.90;;;;;;8404359;28;20365;-71
2022/11/06 01:06:16;;;;;;;22.27;12.00;;;3.00;99.90;;;;;;8406608;28;20184;-71
2022/11/06 01:10:17;;;;;;;19.10;10.87;;;3.10;99.90;;;;;;8405379;28;20195;-71
2022/11/06 01:14:19;;;;;;;14.17;10.23;;;3.10;99.90;;;;;;8405255;28;20276;-70
2022/11/06 01:18:20;;;;;;;15.53;8.73;;;3.00;99.90;;;;;;8403192;28;20200;-71
2022/11/06 01:22:21;;;;;;;22.23;13.30;;;2.80;99.90;;;;;;8404102;28;20185;-71
2022/11/06 01:26:22;;;;;;;14.90;10.53;;;3.00;99.90;;;;;;8403530;28;20276;-71
2022/11/06 01:30:23;;;;;;;11.97;9.40;;;2.90;99.90;;;;;;8405738;28;20217;-70
2022/11/06 01:34:24;;;;;;;14.30;9.20;;;2.80;99.90;;;;;;8405618;28;20207;-71
2022/11/06 01:38:26;;;;;;;13.63;9.50;;;2.70;99.90;;;;;;8402774;28;20216;-71
2022/11/06 01:42:26;;;;;;;12.00;9.37;;;2.60;99.90;;;;;;8422261;28;20176;-71
2022/11/06 01:46:30;;;;;;;15.90;9.97;;;2.50;99.90;;;;;;8404750;28;20191;-70
2022/11/06 01:50:32;;;;;;;16.73;11.10;;;2.50;99.90;;;;;;8402419;28;20259;-71
2022/11/06 01:54:35;;;;;;;19.07;11.07;;;2.50;99.90;;;;;;8420691;28;20189;-70
2022/11/06 01:58:39;;;;;;;34.23;17.10;;;2.50;99.90;;;;;;8415928;28;20275;-70
2022/11/06 02:02:40;;;;;;;38.10;19.37;;;2.40;99.90;;;;;;8404466;28;20192;-71
2022/11/06 02:06:41;;;;;;;36.07;21.67;;;2.30;99.90;;;;;;8418324;28;20172;-70
2022/11/06 02:10:43;;;;;;;28.50;17.10;;;2.20;99.90;;;;;;8401312;28;20275;-70
2022/11/06 02:14:59;;;;;;;27.80;16.30;;;2.10;99.90;;;;;;8397105;28;20304;-71
2022/11/06 02:19:23;;;;;;;29.83;16.47;;;2.00;99.90;;;;;;8416965;28;20209;-71
2022/11/06 02:23:42;;;;;;;28.77;17.90;;;1.90;99.90;;;;;;8420275;28;20180;-71
2022/11/06 02:27:52;;;;;;;26.37;14.47;;;1.90;99.90;;;;;;8400015;28;20241;-70
2022/11/06 02:31:57;;;;;;;24.40;12.00;;;1.90;99.90;;;;;;8418249;28;20177;-70
2022/11/06 02:36:04;;;;;;;21.17;12.53;;;1.90;99.90;;;;;;8412476;28;20464;-69
2022/11/06 02:40:08;;;;;;;20.90;12.13;;;1.80;99.90;;;;;;8398744;28;20216;-70
2022/11/06 02:44:14;;;;;;;22.90;13.77;;;1.70;99.90;;;;;;8398616;28;20439;-70
2022/11/06 02:48:20;;;;;;;25.87;13.23;;;1.60;99.90;;;;;;8400801;28;20191;-69
2022/11/06 02:52:28;;;;;;;25.93;14.53;;;1.60;99.90;;;;;;8417077;28;20180;-70
2022/11/06 02:56:34;;;;;;;27.10;16.43;;;1.50;99.90;;;;;;8415586;28;20294;-71
2022/11/06 03:00:38;;;;;;;30.80;15.63;;;1.40;99.90;;;;;;8400853;28;20307;-71
2022/11/06 03:04:53;;;;;;;27.80;14.27;;;1.30;99.90;;;;;;8415572;28;20203;-70
2022/11/06 03:09:02;;;;;;;25.83;14.87;;;1.20;99.90;;;;;;8417055;28;20176;-69
2022/11/06 03:13:17;;;;;;;18.30;10.30;;;1.10;99.90;;;;;;8392799;28;20204;-70
2022/11/06 03:17:29;;;;;;;34.07;17.60;;;1.10;99.90;;;;;;8412535;28;20268;-70
2022/11/06 03:21:47;;;;;;;41.03;19.37;;;1.10;99.90;;;;;;8416753;28;20200;-71
2022/11/06 03:26:11;;;;;;;51.23;22.10;;;1.10;99.90;;;;;;8397611;28;20177;-70
2022/11/06 03:30:13;;;;;;;43.17;21.30;;;1.00;99.90;;;;;;8397286;28;20279;-69
2022/11/06 03:34:24;;;;;;;37.63;19.90;;;0.80;99.90;;;;;;8414259;28;20188;-69
2022/11/06 03:38:31;;;;;;;52.70;23.47;;;0.60;99.90;;;;;;8398550;28;20216;-71
2022/11/06 03:42:32;;;;;;;60.90;27.63;;;0.50;99.90;;;;;;8397932;28;20242;-69
2022/11/06 03:46:37;;;;;;;63.97;28.33;;;0.40;99.90;;;;;;8398006;28;20281;-70
2022/11/06 03:50:54;;;;;;;68.93;28.90;;;0.40;99.90;;;;;;8397528;28;20271;-70
2022/11/06 03:55:13;;;;;;;56.63;27.57;;;0.30;99.90;;;;;;8414471;28;20191;-70
2022/11/06 03:59:18;;;;;;;44.03;24.37;;;0.30;99.90;;;;;;8394536;28;20216;-70
2022/11/06 04:03:50;;;;;;;35.47;21.13;;;0.20;99.90;;;;;;8396026;28;20228;-69
2022/11/06 04:16:45;;;;;;;26.43;13.90;;;-0.20;99.90;;;;;;8415977;28;20215;-69
2022/11/06 04:21:21;;;;;;;37.73;17.13;;;-0.30;99.90;;;;;;8397453;28;20215;-69
2022/11/06 04:30:16;;;;;;;37.67;18.63;;;-0.30;99.90;;;;;;8327936;28;20196;-69
2022/11/06 04:34:34;;;;;;;29.40;16.47;;;-0.40;99.90;;;;;;8416477;28;20211;-70
2022/11/06 04:38:55;;;;;;;34.67;16.87;;;-0.40;99.90;;;;;;8405337;28;20235;-69
2022/11/06 04:43:12;;;;;;;47.00;20.47;;;-0.50;99.90;;;;;;8399702;28;20317;-69
2022/11/06 04:47:19;;;;;;;53.70;22.83;;;-0.50;99.90;;;;;;8416143;28;20180;-71
2022/11/06 04:51:24;;;;;;;35.23;19.67;;;-0.50;99.90;;;;;;8416047;28;20188;-69
2022/11/06 04:55:28;;;;;;;36.17;18.70;;;-0.50;99.90;;;;;;8388543;28;20194;-70
2022/11/06 04:59:34;;;;;;;36.40;18.80;;;-0.60;99.90;;;;;;8397918;28;20272;-69
2022/11/06 05:03:34;;;;;;;39.40;18.50;;;-0.60;99.90;;;;;;8397168;28;20199;-69
2022/11/06 05:07:35;;;;;;;38.03;17.93;;;-0.60;99.90;;;;;;8396373;28;20187;-69
2022/11/06 05:11:37;;;;;;;33.10;17.63;;;-0.60;99.90;;;;;;8398100;28;20194;-70
2022/11/06 05:15:38;;;;;;;33.90;17.37;;;-0.60;99.90;;;;;;8398277;28;20199;-71
2022/11/06 05:19:39;;;;;;;24.83;16.70;;;-0.60;99.90;;;;;;8418550;28;20237;-70
2022/11/06 05:23:40;;;;;;;31.90;16.80;;;-0.60;99.90;;;;;;8401939;28;20180;-71
2022/11/06 05:27:41;;;;;;;26.63;14.57;;;-0.60;99.90;;;;;;8417713;28;20189;-71
2022/11/06 05:31:42;;;;;;;33.47;17.97;;;-0.70;99.90;;;;;;8400947;28;20267;-70
2022/11/06 05:35:42;;;;;;;35.37;17.27;;;-0.80;99.90;;;;;;8404346;28;20316;-71
2022/11/06 05:39:43;;;;;;;54.17;28.07;;;-0.80;99.90;;;;;;8412268;28;20259;-72
2022/11/06 05:43:44;;;;;;;89.20;35.00;;;-0.80;99.90;;;;;;8428790;28;20242;-71
2022/11/06 05:47:44;;;;;;;69.17;28.97;;;-0.80;99.90;;;;;;8415459;28;20282;-70
2022/11/06 05:51:46;;;;;;;57.10;23.57;;;-0.80;99.90;;;;;;8416269;28;20182;-70
2022/11/06 05:55:47;;;;;;;50.20;21.80;;;-0.80;99.90;;;;;;8439465;28;20184;-71
2022/11/06 05:59:47;;;;;;;46.00;21.20;;;-0.90;99.90;;;;;;8421138;28;20706;-73
2022/11/06 06:03:48;;;;;;;47.53;21.60;;;-0.90;99.90;;;;;;8422068;28;20190;-71
2022/11/06 06:07:49;;;;;;;42.47;21.37;;;-0.90;99.90;;;;;;8422953;28;20275;-71
2022/11/06 06:11:51;;;;;;;35.17;18.83;;;-0.90;99.90;;;;;;8421854;28;20178;-71
2022/11/06 06:15:52;;;;;;;34.13;17.80;;;-0.90;99.90;;;;;;8421586;28;20207;-72
2022/11/06 06:19:52;;;;;;;36.00;16.97;;;-0.90;99.90;;;;;;8421500;28;20206;-72
2022/11/06 06:23:53;;;;;;;33.27;17.87;;;-0.90;99.90;;;;;;8438215;28;20182;-72
2022/11/06 06:27:54;;;;;;;33.93;16.73;;;-0.90;99.90;;;;;;8422044;28;20205;-72
2022/11/06 06:31:55;;;;;;;29.13;15.63;;;-0.90;99.90;;;;;;8421172;28;20187;-72
2022/11/06 06:35:56;;;;;;;30.90;15.77;;;-0.90;99.90;;;;;;8414845;28;20178;-72
2022/11/06 06:39:57;;;;;;;27.20;13.80;;;-0.90;99.90;;;;;;8414922;28;20214;-71
2022/11/06 06:43:58;;;;;;;30.70;16.43;;;-0.80;99.90;;;;;;8434199;28;20207;-72
2022/11/06 06:48:03;;;;;;;28.27;15.93;;;-0.70;99.90;;;;;;8430712;28;20193;-71
2022/11/06 06:52:04;;;;;;;35.37;18.73;;;-0.70;99.90;;;;;;8414055;28;20182;-70
2022/11/06 06:56:05;;;;;;;33.67;19.10;;;-0.60;99.90;;;;;;8416699;28;20210;-70
2022/11/06 07:00:07;;;;;;;37.10;20.53;;;-0.50;99.90;;;;;;8412930;28;20215;-71
2022/11/06 07:04:09;;;;;;;32.23;20.10;;;-0.40;99.90;;;;;;8424883;28;20254;-71
2022/11/06 07:08:10;;;;;;;36.53;20.97;;;-0.20;99.90;;;;;;8406151;28;20210;-70
2022/11/06 07:12:10;;;;;;;40.23;21.37;;;-0.10;99.90;;;;;;8420561;28;20514;-70
2022/11/06 07:16:11;;;;;;;39.00;22.70;;;0.20;99.90;;;;;;8401152;28;20288;-69
2022/11/06 07:20:13;;;;;;;41.60;24.23;;;0.40;99.90;;;;;;8400131;28;20218;-70
2022/11/06 07:24:14;;;;;;;38.57;24.23;;;0.70;99.90;;;;;;8399071;28;20470;-69
2022/11/06 07:28:14;;;;;;;42.60;22.73;;;0.90;99.90;;;;;;8417365;28;20241;-70
2022/11/06 07:32:15;;;;;;;49.90;23.83;;;1.20;99.90;;;;;;8396832;28;20738;-69
2022/11/06 07:36:16;;;;;;;47.77;25.10;;;1.50;99.90;;;;;;8398650;28;20472;-69
2022/11/06 07:40:17;;;;;;;48.77;27.33;;;1.80;99.90;;;;;;8398501;28;20220;-69
2022/11/06 07:44:17;;;;;;;51.20;27.13;;;2.20;99.90;;;;;;8416973;28;20176;-69
2022/11/06 07:48:18;;;;;;;54.27;28.27;;;2.40;99.90;;;;;;8416558;28;20203;-69
2022/11/06 07:52:19;;;;;;;33.63;19.33;;;2.70;99.90;;;;;;8398089;28;20493;-69
2022/11/06 07:56:20;;;;;;;23.03;14.10;;;3.10;99.90;;;;;;8397167;28;20220;-69
2022/11/06 08:00:21;;;;;;;29.57;17.63;;;3.50;99.90;;;;;;8395788;28;20217;-70
2022/11/06 08:04:21;;;;;;;29.20;18.53;;;3.90;99.90;;;;;;8416654;28;20203;-70
2022/11/06 08:08:22;;;;;;;10.43;6.50;;;4.10;99.90;;;;;;8398198;28;20187;-69
2022/11/06 08:12:23;;;;;;;7.83;5.13;;;4.50;99.90;;;;;;8397585;28;20188;-70
2022/11/06 08:16:24;;;;;;;7.27;4.57;;;5.00;99.90;;;;;;8398707;28;20206;-70
2022/11/06 08:20:25;;;;;;;5.97;4.30;;;5.40;99.90;;;;;;8398206;28;20208;-70
2022/11/06 08:24:26;;;;;;;6.77;4.80;;;5.80;99.90;;;;;;8400165;28;20199;-69
2022/11/06 08:28:28;;;;;;;9.50;5.40;;;6.00;99.90;;;;;;8399207;28;20185;-70
2022/11/06 08:32:29;;;;;;;7.03;5.00;;;6.30;99.90;;;;;;8414791;28;20184;-69
2022/11/06 08:36:30;;;;;;;8.77;4.70;;;6.50;99.90;;;;;;8390037;28;20239;-70
2022/11/06 08:40:31;;;;;;;8.50;5.47;;;6.80;99.90;;;;;;8417742;28;20195;-70
2022/11/06 08:44:32;;;;;;;9.63;4.97;;;6.90;99.90;;;;;;8398644;28;20180;-69
2022/11/06 08:48:33;;;;;;;9.10;4.83;;;7.20;99.90;;;;;;8397217;28;20184;-69
2022/11/06 08:52:33;;;;;;;10.37;5.47;;;7.30;99.90;;;;;;8400792;28;20192;-70
2022/11/06 08:56:34;;;;;;;10.10;5.70;;;7.50;99.90;;;;;;8401878;28;20505;-70
2022/11/06 09:00:36;;;;;;;11.07;5.43;;;7.60;99.90;;;;;;8399676;28;20295;-70
2022/11/06 09:04:37;;;;;;;8.30;5.50;;;7.90;99.90;;;;;;8399002;28;20238;-70
2022/11/06 09:08:38;;;;;;;7.67;5.30;;;7.90;99.90;;;;;;8417809;28;20180;-71
2022/11/06 09:12:38;;;;;;;8.53;5.10;;;8.10;99.90;;;;;;8414236;28;20184;-71
2022/11/06 09:16:39;;;;;;;7.93;5.40;;;8.20;99.90;;;;;;8417571;28;20195;-69
2022/11/06 09:20:40;;;;;;;8.53;5.00;;;8.40;99.90;;;;;;8422719;28;20203;-69
2022/11/06 09:24:41;;;;;;;6.63;4.70;;;8.50;99.90;;;;;;8405181;28;20272;-70
2022/11/06 09:28:42;;;;;;;7.43;4.93;;;8.50;99.90;;;;;;8424007;28;20272;-69
2022/11/06 09:32:54;;;;;;;5.87;4.47;;;8.70;99.90;;;;;;8423685;28;20182;-70
2022/11/06 09:36:55;;;;;;;5.97;5.00;;;8.90;99.90;;;;;;8420671;28;20227;-70
2022/11/06 09:40:59;;;;;;;7.67;5.10;;;9.10;99.90;;;;;;8403432;28;20205;-70
2022/11/06 09:45:08;;;;;;;8.73;4.53;;;9.30;99.90;;;;;;8404394;28;20267;-69
2022/11/06 09:49:15;;;;;;;9.23;4.43;;;9.30;99.90;;;;;;8403960;28;20577;-70
2022/11/06 09:53:39;;;;;;;5.47;3.90;;;9.40;99.90;;;;;;8402120;28;20176;-69
2022/11/06 09:58:03;;;;;;;7.27;3.80;;;9.50;99.90;;;;;;8396725;28;20247;-69
2022/11/06 10:02:27;;;;;;;7.47;4.03;;;9.70;99.90;;;;;;8418735;28;20197;-69
2022/11/06 10:06:28;;;;;;;6.17;3.33;;;9.80;99.90;;;;;;8399106;28;20197;-69
2022/11/06 10:10:56;;;;;;;7.10;3.43;;;9.90;99.90;;;;;;8402916;28;20201;-69
2022/11/06 10:15:07;;;;;;;7.17;3.00;;;10.10;99.90;;;;;;8399858;28;20186;-71
2022/11/06 10:19:14;;;;;;;4.70;3.17;;;10.30;99.90;;;;;;8400074;28;20218;-70
2022/11/06 10:23:26;;;;;;;6.30;3.27;;;10.40;99.90;;;;;;8422205;28;20187;-69
2022/11/06 10:27:33;;;;;;;4.77;3.00;;;10.60;99.90;;;;;;8416039;28;20212;-70
2022/11/06 10:32:08;;;;;;;5.53;3.20;;;10.70;99.90;;;;;;8401735;28;20183;-70
2022/11/06 10:36:21;;;;;;;4.13;3.37;;;10.90;99.90;;;;;;8399744;28;20195;-70
2022/11/06 10:40:25;;;;;;;5.20;3.80;;;10.90;99.90;;;;;;8414130;28;20258;-70
2022/11/06 10:45:01;;;;;;;4.10;3.23;;;11.10;99.90;;;;;;8412218;28;20185;-70
2022/11/06 10:49:23;;;;;;;4.40;3.10;;;11.20;99.90;;;;;;8396187;28;20303;-70
2022/11/06 10:53:41;;;;;;;5.03;2.87;;;11.20;1.00;;;;;;8397807;28;20719;-70
2022/11/06 10:58:01;;;;;;;4.57;3.07;;;11.40;99.90;;;;;;8394106;28;20279;-70
2022/11/06 11:02:04;;;;;;;4.27;2.47;;;11.40;1.00;;;;;;8394489;28;20257;-69
2022/11/06 11:06:05;;;;;;;3.57;2.63;;;11.50;1.00;;;;;;8394957;28;20282;-68
2022/11/06 11:10:26;;;;;;;7.23;3.43;;;11.60;1.00;;;;;;8396107;28;20180;-69
2022/11/06 11:14:30;;;;;;;4.07;2.80;;;11.60;1.00;;;;;;8397805;28;20190;-68
2022/11/06 11:18:32;;;;;;;3.83;2.43;;;11.60;1.00;;;;;;8395780;28;20229;-70
2022/11/06 11:22:33;;;;;;;5.20;2.50;;;11.70;1.00;;;;;;8413499;28;20202;-70
2022/11/06 11:26:43;;;;;;;4.57;2.30;;;11.80;1.00;;;;;;8411965;28;20200;-70
2022/11/06 11:30:54;;;;;;;3.97;2.03;;;11.80;1.00;;;;;;8393959;28;20184;-70
2022/11/06 11:34:57;;;;;;;4.30;2.50;;;11.90;1.00;;;;;;8408973;28;20185;-70
2022/11/06 11:38:57;;;;;;;4.03;2.30;;;12.00;1.00;;;;;;8392809;28;20207;-70
2022/11/06 11:43:20;;;;;;;2.90;2.07;;;12.00;1.00;;;;;;8394045;28;20186;-71
2022/11/06 11:47:23;;;;;;;3.63;2.20;;;12.10;99.90;;;;;;8413039;28;20229;-70
2022/11/06 11:51:28;;;;;;;3.40;2.20;;;12.10;99.90;;;;;;8396983;28;20239;-70
2022/11/06 11:55:35;;;;;;;4.20;2.43;;;12.20;99.90;;;;;;8393246;28;20183;-71
2022/11/06 11:59:56;;;;;;;3.30;2.13;;;12.20;99.90;;;;;;8391560;28;20277;-70
2022/11/06 12:03:56;;;;;;;3.37;1.63;;;12.30;99.90;;;;;;8409401;28;20195;-71
2022/11/06 12:07:58;;;;;;;4.30;2.10;;;12.30;99.90;;;;;;8392216;28;20189;-70
2022/11/06 12:12:00;;;;;;;5.30;2.37;;;12.40;99.90;;;;;;8393172;28;20215;-71
2022/11/06 12:16:05;;;;;;;2.80;1.73;;;12.40;99.90;;;;;;8393430;28;20172;-71
2022/11/06 12:20:18;;;;;;;2.80;1.87;;;12.50;99.90;;;;;;8415147;28;20258;-69
2022/11/06 12:24:26;;;;;;;3.90;2.07;;;12.60;99.90;;;;;;8391908;28;20183;-70
2022/11/06 12:28:31;;;;;;;2.90;1.70;;;12.60;99.90;;;;;;8394859;28;20188;-70
2022/11/06 12:32:53;;;;;;;4.17;2.40;;;12.70;99.90;;;;;;8393770;28;20296;-70
2022/11/06 12:37:26;;;;;;;3.00;1.97;;;12.70;99.90;;;;;;8395023;28;20210;-71
2022/11/06 12:41:38;;;;;;;4.67;2.03;;;12.70;99.90;;;;;;8393305;28;20242;-69
2022/11/06 12:46:09;;;;;;;4.23;1.70;;;12.70;99.90;;;;;;8410688;28;20238;-70
2022/11/06 12:50:13;;;;;;;4.10;2.00;;;12.60;99.90;;;;;;8407714;28;20252;-70
2022/11/06 12:54:36;;;;;;;3.63;2.13;;;12.60;99.90;;;;;;8415966;28;20184;-70
2022/11/06 12:58:40;;;;;;;4.97;1.70;;;12.70;99.90;;;;;;8413626;28;20302;-71
2022/11/06 13:02:53;;;;;;;2.27;1.47;;;12.60;99.90;;;;;;8416686;28;20192;-72
2022/11/06 13:07:26;;;;;;;3.80;1.93;;;12.50;99.90;;;;;;8395466;28;20172;-70
2022/11/06 13:11:42;;;;;;;6.37;2.03;;;12.50;99.90;;;;;;8414810;28;20176;-71
2022/11/06 13:16:05;;;;;;;2.77;1.93;;;12.50;99.90;;;;;;8420378;28;20181;-70
2022/11/06 13:20:34;;;;;;;3.30;1.63;;;12.50;99.90;;;;;;8419873;28;20211;-71
2022/11/06 13:24:58;;;;;;;3.10;1.83;;;12.40;99.90;;;;;;8416546;28;20176;-70
2022/11/06 13:29:03;;;;;;;2.53;1.77;;;12.40;99.90;;;;;;8394032;28;20180;-69
2022/11/06 13:33:24;;;;;;;3.43;1.60;;;12.40;99.90;;;;;;8420191;28;20191;-69
2022/11/06 13:37:33;;;;;;;4.43;1.47;;;12.40;99.90;;;;;;8417805;28;20185;-70
2022/11/06 13:41:34;;;;;;;3.30;2.00;;;12.40;99.90;;;;;;8400625;28;20193;-71
2022/11/06 13:46:06;;;;;;;3.90;1.90;;;12.30;99.90;;;;;;8396168;28;20220;-70
2022/11/06 13:50:21;;;;;;;2.80;1.50;;;12.30;99.90;;;;;;8382661;28;20189;-70
2022/11/06 13:54:38;;;;;;;5.23;1.80;;;12.20;99.90;;;;;;8399827;28;20279;-71
2022/11/06 13:59:12;;;;;;;3.67;1.90;;;12.10;99.90;;;;;;8413158;28;20299;-70
2022/11/06 14:03:22;;;;;;;3.93;1.63;;;12.00;99.90;;;;;;8397831;28;20224;-71
2022/11/06 14:07:29;;;;;;;2.90;1.40;;;11.90;99.90;;;;;;8397948;28;20184;-70
2022/11/06 14:11:33;;;;;;;3.13;1.80;;;11.90;99.90;;;;;;8399874;28;20181;-71
2022/11/06 14:15:38;;;;;;;2.47;1.67;;;11.80;99.90;;;;;;8399466;28;20177;-71
2022/11/06 14:19:41;;;;;;;3.20;1.50;;;11.70;99.90;;;;;;8416792;28;20200;-71
2022/11/06 14:23:42;;;;;;;3.37;1.60;;;11.60;99.90;;;;;;8399151;28;20183;-71
2022/11/06 14:27:49;;;;;;;4.87;2.20;;;11.40;99.90;;;;;;8397555;28;20191;-71
2022/11/06 14:32:20;;;;;;;5.37;2.90;;;11.30;1.00;;;;;;8400797;28;20219;-70
2022/11/06 14:36:24;;;;;;;6.93;2.23;;;11.30;1.00;;;;;;8419279;28;20276;-70
2022/11/06 14:40:31;;;;;;;4.37;2.10;;;11.10;1.00;;;;;;8420514;28;20218;-70
2022/11/06 14:44:40;;;;;;;3.13;1.40;;;10.90;1.00;;;;;;8418140;28;20249;-70
2022/11/06 14:48:46;;;;;;;3.20;1.60;;;10.80;1.00;;;;;;8417998;28;20189;-71
2022/11/06 14:53:01;;;;;;;2.20;1.33;;;10.50;66.20;;;;;;8417080;28;20420;-71
2022/11/06 14:57:02;;;;;;;3.30;1.10;;;10.20;99.90;;;;;;8414041;28;20203;-70
2022/11/06 15:01:09;;;;;;;1.73;1.10;;;9.90;99.90;;;;;;8417074;28;20207;-69
2022/11/06 15:05:17;;;;;;;1.70;1.43;;;9.60;1.00;;;;;;8401357;28;20203;-70
2022/11/06 15:09:25;;;;;;;1.93;1.50;;;9.20;1.00;;;;;;8401156;28;20192;-70
2022/11/06 15:13:29;;;;;;;2.17;1.63;;;8.80;99.20;;;;;;8415910;28;20190;-71
2022/11/06 15:17:33;;;;;;;2.63;1.67;;;8.50;99.90;;;;;;8397913;28;20188;-70
2022/11/06 15:22:05;;;;;;;3.00;1.50;;;8.20;1.00;;;;;;8416115;28;20245;-70
2022/11/06 15:26:28;;;;;;;3.40;1.63;;;7.90;59.90;;;;;;8415478;28;20204;-69
2022/11/06 15:30:37;;;;;;;2.47;1.50;;;7.50;99.90;;;;;;8417054;28;20183;-70
2022/11/06 15:35:16;;;;;;;2.30;1.70;;;7.30;18.80;;;;;;8418351;28;20184;-70
2022/11/06 15:39:49;;;;;;;2.43;1.70;;;7.00;99.90;;;;;;8399339;28;20203;-71
2022/11/06 15:43:52;;;;;;;2.87;1.70;;;6.80;52.40;;;;;;8396266;28;20198;-70
2022/11/06 15:47:57;;;;;;;2.80;1.70;;;6.60;99.90;;;;;;8416426;28;20172;-70
2022/11/06 15:52:02;;;;;;;5.03;2.30;;;6.40;99.90;;;;;;8415554;28;20192;-69
2022/11/06 15:56:06;;;;;;;4.63;3.27;;;6.20;1.00;;;;;;8395829;28;20176;-72
2022/11/06 16:00:08;;;;;;;6.53;4.80;;;6.00;99.90;;;;;;8415008;28;20212;-69
2022/11/06 16:04:24;;;;;;;6.90;4.07;;;5.80;99.90;;;;;;8415866;28;20244;-69
2022/11/06 16:08:28;;;;;;;4.67;3.23;;;5.60;99.90;;;;;;8398145;28;20183;-70
2022/11/06 16:12:29;;;;;;;5.37;3.73;;;5.40;1.00;;;;;;8395509;28;20188;-70
2022/11/06 16:16:46;;;;;;;6.67;3.83;;;5.30;1.00;;;;;;8413181;28;20259;-70
2022/11/06 16:21:12;;;;;;;6.03;4.03;;;5.10;99.90;;;;;;8409658;28;20226;-70
2022/11/06 16:25:18;;;;;;;6.00;4.17;;;5.00;99.90;;;;;;8389552;28;20207;-70
2022/11/06 16:29:28;;;;;;;8.73;5.43;;;4.80;99.90;;;;;;8412921;28;20306;-70
2022/11/06 16:33:29;;;;;;;7.17;4.90;;;4.70;1.00;;;;;;8398204;28;20184;-69
2022/11/06 16:37:35;;;;;;;10.97;9.53;;;4.60;75.10;;;;;;8413169;28;20191;-71
2022/11/06 16:41:56;;;;;;;16.07;10.37;;;4.50;1.00;;;;;;8412542;28;20181;-70
2022/11/06 16:46:06;;;;;;;12.30;8.50;;;4.50;99.90;;;;;;8401827;28;20183;-70
2022/11/06 16:50:41;;;;;;;14.93;9.40;;;4.60;99.90;;;;;;8413397;28;20207;-70
2022/11/06 16:54:52;;;;;;;16.07;10.57;;;4.60;99.90;;;;;;8398662;28;20347;-69
2022/11/06 16:59:04;;;;;;;13.23;9.97;;;4.60;99.90;;;;;;8391993;28;20242;-70
2022/11/06 17:03:07;;;;;;;14.57;10.17;;;4.60;99.90;;;;;;8395810;28;20193;-70
2022/11/06 17:07:18;;;;;;;15.73;9.30;;;4.50;99.90;;;;;;8397523;28;20177;-70
2022/11/06 17:11:20;;;;;;;18.00;10.60;;;4.50;99.90;;;;;;8413234;28;20188;-69
2022/11/06 17:15:21;;;;;;;24.50;16.40;;;4.40;99.90;;;;;;8397844;28;20211;-70
2022/11/06 17:19:23;;;;;;;23.57;14.83;;;4.30;99.90;;;;;;8414978;28;20216;-69
2022/11/06 17:23:25;;;;;;;72.57;30.57;;;4.30;99.90;;;;;;8397685;28;20196;-70
2022/11/06 17:27:26;;;;;;;49.47;23.57;;;4.20;99.90;;;;;;8397723;28;20172;-70
2022/11/06 17:31:27;;;;;;;29.07;16.80;;;4.00;99.90;;;;;;8397554;28;20192;-70
2022/11/06 17:35:28;;;;;;;19.60;13.80;;;3.90;99.90;;;;;;8394299;28;20270;-70
2022/11/06 17:39:30;;;;;;;23.23;14.13;;;3.90;99.90;;;;;;8400554;28;20207;-70
2022/11/06 17:43:31;;;;;;;26.73;16.73;;;3.70;99.90;;;;;;8403962;28;20219;-70
2022/11/06 17:47:32;;;;;;;21.03;12.77;;;3.60;99.90;;;;;;8402750;28;20212;-70
2022/11/06 17:55:52;;;;;;;10.07;6.77;;;3.20;99.90;;;;;;8418759;28;20215;-69
2022/11/06 17:59:53;;;;;;;57.10;17.10;;;3.00;99.90;;;;;;8397673;28;20203;-70
2022/11/06 18:03:54;;;;;;;137.63;40.33;;;3.00;99.90;;;;;;8399660;28;20535;-70
2022/11/06 18:07:55;;;;;;;71.90;24.30;;;2.90;99.90;;;;;;8418003;28;20189;-69
2022/11/06 18:11:56;;;;;;;29.83;13.37;;;2.70;99.90;;;;;;8398657;28;20188;-69
2022/11/06 18:15:57;;;;;;;16.43;9.90;;;2.60;99.90;;;;;;8397433;28;20257;-70
2022/11/06 18:19:59;;;;;;;19.13;9.07;;;2.50;99.90;;;;;;8398550;28;20208;-69
2022/11/06 18:24:00;;;;;;;14.97;9.90;;;2.40;99.90;;;;;;8397500;28;20219;-70
2022/11/06 18:28:01;;;;;;;15.80;11.47;;;2.30;99.90;;;;;;8415942;28;20188;-69
2022/11/06 18:32:02;;;;;;;13.50;10.27;;;2.30;99.90;;;;;;8406183;28;20238;-68
2022/11/06 18:36:06;;;;;;;12.37;8.50;;;2.20;99.90;;;;;;8415663;28;20216;-69
2022/11/06 18:40:07;;;;;;;19.53;11.00;;;2.10;99.90;;;;;;8415530;28;20269;-69
2022/11/06 18:44:08;;;;;;;33.50;17.60;;;2.00;99.90;;;;;;8418293;28;20208;-69
2022/11/06 18:48:09;;;;;;;27.57;16.53;;;2.00;99.90;;;;;;8398310;28;20492;-69
2022/11/06 18:52:10;;;;;;;24.63;15.60;;;2.10;99.90;;;;;;8398486;28;20270;-69
2022/11/06 18:56:17;;;;;;;20.53;12.77;;;2.20;99.90;;;;;;8415601;28;20188;-69
2022/11/06 19:00:18;;;;;;;26.90;14.63;;;2.30;99.90;;;;;;8411439;28;20382;-70
2022/11/06 19:04:20;;;;;;;20.33;12.43;;;2.30;99.90;;;;;;8416052;28;20204;-70
2022/11/06 19:08:21;;;;;;;41.23;19.67;;;2.30;99.90;;;;;;8396796;28;20197;-70
2022/11/06 19:12:22;;;;;;;44.90;22.20;;;2.30;99.90;;;;;;8414786;28;20257;-70
2022/11/06 19:16:24;;;;;;;38.90;19.07;;;2.20;99.90;;;;;;8396842;28;20184;-69
2022/11/06 19:20:25;;;;;;;23.40;12.73;;;2.10;99.90;;;;;;8400573;28;20208;-69
2022/11/06 19:24:25;;;;;;;12.40;9.57;;;1.90;99.90;;;;;;8395250;28;20280;-69
2022/11/06 19:28:26;;;;;;;15.47;9.43;;;1.70;99.90;;;;;;8397362;28;20196;-69
2022/11/06 19:32:27;;;;;;;44.40;21.97;;;1.50;99.90;;;;;;8397043;28;20187;-69
2022/11/06 19:36:30;;;;;;;97.33;49.17;;;1.50;99.90;;;;;;8393047;28;20188;-69
2022/11/06 19:40:32;;;;;;;180.53;88.67;;;1.60;99.90;;;;;;8399829;28;20208;-70
2022/11/06 19:44:33;;;;;;;147.67;75.23;;;1.60;99.90;;;;;;8395757;28;20193;-69
2022/11/06 19:48:35;;;;;;;86.03;45.40;;;1.70;99.90;;;;;;8394088;28;20262;-69
2022/11/06 19:52:36;;;;;;;76.13;40.20;;;1.50;99.90;;;;;;8395551;28;20195;-70
2022/11/06 19:56:37;;;;;;;60.47;31.10;;;1.20;99.90;;;;;;8412129;28;20192;-69
2022/11/06 20:00:39;;;;;;;44.07;23.80;;;1.10;99.90;;;;;;8410859;28;20212;-69
2022/11/06 20:04:40;;;;;;;41.70;23.93;;;1.00;99.90;;;;;;8394521;28;20218;-69
2022/11/06 20:08:41;;;;;;;50.43;24.33;;;0.90;99.90;;;;;;8410812;28;20189;-69
2022/11/06 20:12:42;;;;;;;50.50;27.07;;;0.80;99.90;;;;;;8407464;28;20184;-69
2022/11/06 20:16:43;;;;;;;48.10;24.93;;;0.70;99.90;;;;;;8410550;28;20245;-69
2022/11/06 20:20:45;;;;;;;39.77;21.93;;;0.60;99.90;;;;;;8392039;28;20211;-69
2022/11/06 20:24:46;;;;;;;36.30;19.33;;;0.50;99.90;;;;;;8393325;28;20173;-69
2022/11/06 20:28:47;;;;;;;40.40;22.23;;;0.50;99.90;;;;;;8393308;28;20199;-69
2022/11/06 20:32:48;;;;;;;36.10;20.27;;;0.50;99.90;;;;;;8413243;28;20181;-69
2022/11/06 20:36:49;;;;;;;33.80;18.13;;;0.40;99.90;;;;;;8393155;28;20185;-70
2022/11/06 20:40:55;;;;;;;32.00;18.70;;;0.30;99.90;;;;;;8411691;28;20200;-69
2022/11/06 20:44:56;;;;;;;35.70;21.30;;;0.30;99.90;;;;;;8393963;28;20176;-69
2022/11/06 20:48:58;;;;;;;31.33;20.00;;;0.30;99.90;;;;;;8394625;28;20184;-70
2022/11/06 20:52:59;;;;;;;35.27;18.83;;;0.30;99.90;;;;;;8413307;28;20257;-69
2022/11/06 20:57:00;;;;;;;32.17;17.87;;;0.20;99.90;;;;;;8393864;28;20220;-69
2022/11/06 21:01:06;;;;;;;30.13;17.07;;;0.20;99.90;;;;;;8393725;28;20208;-68
2022/11/06 21:05:07;;;;;;;23.50;13.63;;;0.10;99.90;;;;;;8399544;28;20503;-68
2022/11/06 21:09:08;;;;;;;21.40;13.13;;;0.10;99.90;;;;;;8395095;28;20619;-68
2022/11/06 21:13:09;;;;;;;20.40;13.07;;;0.00;99.90;;;;;;8413370;28;20173;-68
2022/11/06 21:17:10;;;;;;;24.63;16.00;;;0.00;99.90;;;;;;8401903;28;20190;-69
2022/11/06 21:21:14;;;;;;;23.00;13.97;;;0.00;99.90;;;;;;8402011;28;20485;-68
2022/11/06 21:25:15;;;;;;;18.93;11.23;;;0.00;99.90;;;;;;8401327;28;20184;-70
2022/11/06 21:29:15;;;;;;;19.33;11.00;;;0.00;99.90;;;;;;8399602;28;20280;-69
2022/11/06 21:33:16;;;;;;;17.80;10.33;;;0.00;99.90;;;;;;8400127;28;20180;-68
2022/11/06 21:37:17;;;;;;;20.20;11.70;;;-0.10;99.90;;;;;;8398291;28;20200;-68